createdAt,value
2018-04-24T00:02:13.376Z,85.80
2018-04-24T00:04:41.617Z,84.90
2018-04-24T00:07:10.329Z,85.10
2018-04-24T00:09:38.569Z,84.30
2018-04-24T00:12:07.593Z,84.60
2018-04-24T00:14:35.884Z,84.50
2018-04-24T00:17:04.170Z,84.00
2018-04-24T00:19:32.416Z,84.20
2018-04-24T00:22:01.548Z,83.70
2018-04-24T00:24:29.921Z,83.70
2018-04-24T00:26:58.181Z,83.60
2018-04-24T00:29:26.420Z,84.10
2018-04-24T00:31:56.191Z,84.40
2018-04-24T00:34:24.516Z,84.50
2018-04-24T00:36:53.493Z,84.60
2018-04-24T00:39:21.760Z,84.60
2018-04-24T00:41:50.045Z,85.00
2018-04-24T00:44:18.305Z,85.60
2018-04-24T00:46:46.561Z,85.30
2018-04-24T00:49:15.608Z,85.90
2018-04-24T00:51:43.872Z,85.70
2018-04-24T00:54:12.157Z,85.60
2018-04-24T00:56:40.440Z,85.60
2018-04-24T00:59:08.704Z,85.70
2018-04-24T01:01:37.004Z,86.20
2018-04-24T01:04:05.273Z,86.60
2018-04-24T01:06:33.528Z,86.60
2018-04-24T01:09:01.828Z,87.10
2018-04-24T01:11:30.073Z,87.10
2018-04-24T01:13:59.117Z,87.50
2018-04-24T01:16:27.385Z,87.50
2018-04-24T01:18:55.648Z,87.50
2018-04-24T01:21:23.901Z,87.70
2018-04-24T01:23:52.933Z,88.80
2018-04-24T01:26:21.222Z,88.70
2018-04-24T01:28:49.480Z,88.80
2018-04-24T01:31:17.745Z,88.80
2018-04-24T01:33:46.070Z,89.50
2018-04-24T01:36:14.334Z,90.10
2018-04-24T01:38:42.605Z,90.40
2018-04-24T01:41:11.638Z,90.90
2018-04-24T01:43:39.896Z,90.80
2018-04-24T01:46:08.156Z,91.00
2018-04-24T01:48:36.465Z,91.40
2018-04-24T01:51:04.720Z,91.70
2018-04-24T01:53:32.960Z,92.10
2018-04-24T01:56:01.331Z,92.50
2018-04-24T01:58:29.557Z,93.10
2018-04-24T02:00:57.861Z,93.20
2018-04-24T02:03:26.129Z,93.60
2018-04-24T02:05:54.385Z,94.00
2018-04-24T02:08:22.626Z,94.10
2018-04-24T02:10:50.977Z,94.50
2018-04-24T02:13:19.266Z,94.80
2018-04-24T02:15:47.528Z,95.20
2018-04-24T02:18:15.775Z,95.60
2018-04-24T02:20:44.801Z,96.40
2018-04-24T02:23:13.062Z,96.30
2018-04-24T02:25:41.324Z,96.70
2018-04-24T02:28:10.353Z,97.10
2018-04-24T02:30:38.625Z,97.10
2018-04-24T02:33:06.942Z,97.30
2018-04-24T02:35:36.227Z,97.50
2018-04-24T02:38:04.476Z,97.70
2018-04-24T02:40:32.756Z,97.90
2018-04-24T02:43:01.004Z,98.00
2018-04-24T02:45:29.335Z,98.10
2018-04-24T02:47:57.607Z,98.30
2018-04-24T02:50:25.900Z,98.80
2018-04-24T02:52:54.162Z,98.70
2018-04-24T02:55:22.408Z,98.80
2018-04-24T02:57:51.565Z,99.10
2018-04-24T03:00:19.841Z,99.10
2018-04-24T03:02:48.123Z,99.20
2018-04-24T03:05:16.360Z,99.40
2018-04-24T03:07:45.497Z,99.60
2018-04-24T03:10:13.779Z,99.50
2018-04-24T03:12:42.051Z,99.60
2018-04-24T03:15:10.349Z,99.60
2018-04-24T03:17:38.657Z,99.80
2018-04-24T03:20:06.921Z,99.90
2018-04-24T03:22:35.281Z,99.90
2018-04-24T03:25:03.538Z,99.90
2018-04-24T03:27:32.658Z,99.90
2018-04-24T03:30:00.939Z,99.90
2018-04-24T03:32:29.197Z,99.90
2018-04-24T03:34:57.443Z,99.90
2018-04-24T03:37:26.481Z,99.90
2018-04-24T03:39:54.723Z,99.80
2018-04-24T03:42:23.769Z,99.90
2018-04-24T03:44:52.049Z,99.90
2018-04-24T03:47:20.349Z,99.80
2018-04-24T03:49:48.620Z,99.90
2018-04-24T03:52:16.892Z,99.90
2018-04-24T03:54:45.273Z,99.90
2018-04-24T03:57:13.623Z,99.90
2018-04-24T03:59:41.808Z,99.90
2018-04-24T04:02:10.113Z,99.90
2018-04-24T04:04:38.928Z,99.90
2018-04-24T04:07:07.281Z,99.90
2018-04-24T04:09:35.530Z,99.90
2018-04-24T04:12:04.651Z,99.90
2018-04-24T04:14:32.947Z,99.90
2018-04-24T04:20:13.014Z,99.90
2018-04-24T04:23:07.920Z,99.90
2018-04-24T04:25:36.173Z,99.90
2018-04-24T04:28:04.436Z,99.90
2018-04-24T04:30:33.458Z,99.90
2018-04-24T04:33:01.787Z,99.90
2018-04-24T04:35:30.011Z,99.90
2018-04-24T04:37:58.283Z,99.90
2018-04-24T04:40:31.021Z,99.90
2018-04-24T04:43:01.747Z,99.90
2018-04-24T04:45:29.990Z,99.90
2018-04-24T04:47:59.018Z,99.90
2018-04-24T04:50:27.302Z,99.90
2018-04-24T04:52:55.565Z,99.90
2018-04-24T04:55:23.816Z,99.90
2018-04-24T04:57:52.892Z,99.90
2018-04-24T05:00:21.591Z,99.90
2018-04-24T05:02:50.693Z,99.90
2018-04-24T05:05:19.559Z,99.90
2018-04-24T05:07:47.816Z,99.90
2018-04-24T05:10:16.057Z,99.90
2018-04-24T05:12:45.204Z,99.90
2018-04-24T05:15:13.445Z,99.90
2018-04-24T05:17:42.588Z,99.90
2018-04-24T05:20:10.862Z,99.90
2018-04-24T05:22:39.116Z,99.90
2018-04-24T05:25:07.355Z,99.90
2018-04-24T05:27:35.603Z,99.90
2018-04-24T05:30:03.870Z,99.90
2018-04-24T05:32:32.133Z,99.90
2018-04-24T05:35:00.449Z,99.90
2018-04-24T05:37:28.804Z,99.90
2018-04-24T05:39:57.044Z,99.90
2018-04-24T05:42:26.082Z,99.90
2018-04-24T05:44:54.332Z,99.90
2018-04-24T05:47:22.633Z,99.80
2018-04-24T05:49:50.877Z,99.70
2018-04-24T05:52:19.959Z,99.20
2018-04-24T05:54:48.176Z,98.80
2018-04-24T05:57:16.583Z,99.20
2018-04-24T05:59:44.859Z,99.00
2018-04-24T06:02:13.180Z,98.30
2018-04-24T06:04:41.376Z,97.90
2018-04-24T06:07:09.633Z,97.40
2018-04-24T06:09:37.876Z,98.10
2018-04-24T06:12:06.131Z,96.80
2018-04-24T06:14:34.425Z,96.30
2018-04-24T06:17:02.680Z,96.20
2018-04-24T06:19:31.682Z,95.30
2018-04-24T06:22:00.721Z,95.20
2018-04-24T06:24:28.967Z,95.20
2018-04-24T06:26:58.093Z,94.90
2018-04-24T06:29:26.337Z,94.90
2018-04-24T06:31:55.340Z,93.90
2018-04-24T06:34:24.473Z,93.50
2018-04-24T06:36:52.757Z,93.50
2018-04-24T06:39:21.017Z,92.90
2018-04-24T06:41:49.271Z,92.90
2018-04-24T06:44:18.522Z,92.70
2018-04-24T06:46:46.793Z,92.70
2018-04-24T06:49:15.060Z,92.60
2018-04-24T06:51:43.313Z,92.90
2018-04-24T06:54:12.333Z,92.50
2018-04-24T06:56:40.581Z,92.40
2018-04-24T06:59:09.604Z,91.70
2018-04-24T07:01:37.848Z,91.60
2018-04-24T07:04:06.362Z,91.70
2018-04-24T07:06:35.012Z,91.60
2018-04-24T07:09:04.597Z,90.20
2018-04-24T07:11:33.313Z,90.10
2018-04-24T07:14:01.673Z,88.30
2018-04-24T07:16:29.907Z,87.00
2018-04-24T07:18:58.952Z,84.40
2018-04-24T07:21:27.228Z,84.40
2018-04-24T07:23:55.600Z,83.10
2018-04-24T07:26:23.859Z,82.70
2018-04-24T07:28:52.116Z,81.60
2018-04-24T07:31:20.402Z,81.10
2018-04-24T07:33:48.995Z,80.40
2018-04-24T07:36:18.077Z,79.80
2018-04-24T07:38:47.223Z,79.30
2018-04-24T07:41:15.565Z,79.20
2018-04-24T07:43:43.883Z,77.60
2018-04-24T07:46:12.236Z,76.80
2018-04-24T07:48:40.444Z,76.80
2018-04-24T07:51:08.763Z,75.30
2018-04-24T07:53:36.997Z,74.50
2018-04-24T07:56:05.292Z,73.50
2018-04-24T07:58:33.562Z,73.60
2018-04-24T08:01:01.813Z,74.70
2018-04-24T08:03:30.878Z,75.10
2018-04-24T08:05:59.120Z,75.10
2018-04-24T08:08:27.400Z,74.00
2018-04-24T08:10:55.646Z,74.60
2018-04-24T08:13:24.683Z,72.00
2018-04-24T08:15:52.928Z,72.00
2018-04-24T08:18:21.952Z,71.10
2018-04-24T08:20:50.241Z,71.00
2018-04-24T08:23:18.521Z,72.30
2018-04-24T08:25:46.771Z,73.50
2018-04-24T08:28:15.796Z,71.90
2018-04-24T08:30:44.033Z,71.90
2018-04-24T08:33:13.057Z,72.00
2018-04-24T08:35:41.350Z,72.00
2018-04-24T08:38:09.623Z,71.90
2018-04-24T08:40:37.878Z,71.00
2018-04-24T08:43:06.901Z,70.00
2018-04-24T08:45:35.157Z,69.90
2018-04-24T08:48:03.412Z,69.90
2018-04-24T08:50:32.464Z,68.30
2018-04-24T08:53:00.728Z,67.50
2018-04-24T08:55:28.963Z,66.90
2018-04-24T08:57:57.309Z,66.70
2018-04-24T09:00:25.681Z,65.80
2018-04-24T09:02:53.938Z,66.50
2018-04-24T09:05:22.174Z,66.10
2018-04-24T09:07:50.465Z,66.30
2018-04-24T09:10:18.797Z,66.40
2018-04-24T09:12:47.060Z,62.50
2018-04-24T09:15:16.181Z,60.80
2018-04-24T09:17:45.641Z,60.80
2018-04-24T09:20:15.409Z,60.20
2018-04-24T09:22:43.657Z,60.20
2018-04-24T09:25:12.054Z,59.80
2018-04-24T09:27:40.328Z,59.10
2018-04-24T09:30:08.650Z,57.70
2018-04-24T09:32:36.899Z,56.80
2018-04-24T09:35:05.161Z,56.90
2018-04-24T09:37:33.400Z,57.20
2018-04-24T09:40:01.654Z,55.50
2018-04-24T09:42:29.892Z,55.50
2018-04-24T09:44:58.157Z,56.00
2018-04-24T09:47:27.156Z,55.30
2018-04-24T09:49:56.529Z,52.80
2018-04-24T09:52:25.834Z,53.30
2018-04-24T09:54:54.318Z,53.40
2018-04-24T09:57:22.851Z,52.50
2018-04-24T09:59:51.257Z,52.00
2018-04-24T10:02:19.712Z,51.50
2018-04-24T10:04:48.202Z,51.80
2018-04-24T10:07:16.642Z,51.90
2018-04-24T10:09:45.055Z,52.00
2018-04-24T10:12:13.444Z,50.30
2018-04-24T10:14:41.755Z,51.50
2018-04-24T10:17:10.071Z,52.40
2018-04-24T10:19:38.311Z,52.70
2018-04-24T10:22:06.698Z,53.30
2018-04-24T10:24:34.962Z,52.90
2018-04-24T10:27:03.214Z,52.30
2018-04-24T10:29:32.251Z,50.00
2018-04-24T10:32:00.493Z,50.00
2018-04-24T10:34:29.520Z,49.10
2018-04-24T10:36:57.817Z,49.00
2018-04-24T10:39:26.087Z,48.30
2018-04-24T10:41:54.367Z,47.80
2018-04-24T10:44:23.680Z,48.40
2018-04-24T10:46:51.926Z,48.60
2018-04-24T10:49:20.203Z,47.70
2018-04-24T10:51:49.233Z,47.90
2018-04-24T10:54:17.517Z,47.80
2018-04-24T10:56:45.783Z,47.50
2018-04-24T10:59:14.057Z,46.50
2018-04-24T11:01:42.300Z,46.60
2018-04-24T11:04:11.332Z,46.10
2018-04-24T11:06:39.640Z,46.00
2018-04-24T11:09:08.614Z,44.70
2018-04-24T11:11:36.852Z,44.60
2018-04-24T11:14:05.897Z,45.10
2018-04-24T11:16:34.170Z,45.10
2018-04-24T11:19:02.434Z,44.70
2018-04-24T11:21:30.701Z,44.50
2018-04-24T11:23:58.938Z,44.60
2018-04-24T11:26:27.191Z,45.00
2018-04-24T11:28:55.449Z,45.10
2018-04-24T11:31:23.709Z,45.70
2018-04-24T11:33:52.749Z,46.50
2018-04-24T11:36:20.992Z,46.50
2018-04-24T11:38:50.006Z,46.40
2018-04-24T11:41:18.369Z,46.30
2018-04-24T11:43:46.602Z,46.20
2018-04-24T11:46:14.825Z,47.30
2018-04-24T11:48:43.957Z,46.80
2018-04-24T11:51:12.196Z,46.70
2018-04-24T11:53:41.226Z,46.70
2018-04-24T11:56:09.590Z,46.70
2018-04-24T11:58:37.901Z,46.90
2018-04-24T12:01:06.136Z,47.40
2018-04-24T12:03:35.165Z,47.30
2018-04-24T12:06:03.407Z,47.30
2018-04-24T12:08:32.550Z,44.60
2018-04-24T12:11:00.829Z,44.50
2018-04-24T12:13:29.068Z,45.20
2018-04-24T12:15:57.402Z,44.30
2018-04-24T12:18:25.621Z,44.10
2018-04-24T12:20:54.660Z,44.70
2018-04-24T12:23:22.904Z,44.70
2018-04-24T12:25:51.932Z,44.80
2018-04-24T12:28:20.190Z,44.70
2018-04-24T12:30:49.199Z,44.80
2018-04-24T12:33:17.505Z,44.80
2018-04-24T12:35:45.773Z,45.80
2018-04-24T12:38:14.057Z,44.90
2018-04-24T12:40:42.417Z,44.70
2018-04-24T12:43:10.628Z,44.70
2018-04-24T12:45:38.897Z,45.80
2018-04-24T12:48:07.188Z,44.70
2018-04-24T12:50:35.453Z,45.00
2018-04-24T12:53:03.702Z,45.80
2018-04-24T12:55:32.724Z,47.10
2018-04-24T12:58:00.969Z,47.10
2018-04-24T13:00:29.998Z,47.10
2018-04-24T13:02:58.244Z,47.10
2018-04-24T13:05:26.561Z,46.90
2018-04-24T13:07:54.749Z,46.70
2018-04-24T13:10:23.005Z,47.00
2018-04-24T13:12:51.328Z,47.20
2018-04-24T13:15:19.630Z,47.20
2018-04-24T13:17:48.007Z,47.00
2018-04-24T13:20:16.314Z,46.90
2018-04-24T13:22:45.353Z,45.40
2018-04-24T13:25:13.641Z,45.40
2018-04-24T13:27:41.882Z,45.60
2018-04-24T13:30:10.913Z,47.10
2018-04-24T13:32:39.151Z,47.10
2018-04-24T13:35:08.172Z,48.40
2018-04-24T13:37:36.419Z,48.40
2018-04-24T13:40:05.453Z,49.60
2018-04-24T13:42:33.687Z,49.50
2018-04-24T13:45:01.962Z,51.40
2018-04-24T13:47:30.209Z,51.10
2018-04-24T13:49:58.472Z,50.70
2018-04-24T13:52:26.764Z,51.00
2018-04-24T13:54:55.060Z,51.00
2018-04-24T13:57:23.329Z,51.90
2018-04-24T13:59:57.633Z,51.90
2018-04-24T14:02:25.878Z,51.90
2018-04-24T14:04:54.927Z,53.00
2018-04-24T14:07:23.205Z,53.00
2018-04-24T14:09:51.517Z,53.70
2018-04-24T14:12:19.835Z,53.40
2018-04-24T14:14:48.259Z,54.40
2018-04-24T14:17:16.576Z,54.40
2018-04-24T14:19:44.921Z,54.90
2018-04-24T14:22:13.221Z,54.10
2018-04-24T14:24:41.460Z,54.80
2018-04-24T14:27:09.705Z,55.10
2018-04-24T14:29:38.724Z,54.50
2018-04-24T14:32:06.965Z,54.50
2018-04-24T14:34:35.211Z,54.90
2018-04-24T14:37:03.557Z,55.00
2018-04-24T14:39:31.725Z,55.30
2018-04-24T14:42:00.731Z,54.80
2018-04-24T14:44:29.070Z,54.80
2018-04-24T14:46:57.450Z,55.10
2018-04-24T14:49:25.936Z,55.10
2018-04-24T14:51:55.110Z,55.70
2018-04-24T14:54:23.521Z,55.70
2018-04-24T14:56:52.770Z,56.20
2018-04-24T14:59:21.310Z,56.10
2018-04-24T15:01:49.896Z,55.50
2018-04-24T15:04:19.203Z,56.10
2018-04-24T15:06:47.649Z,56.10
2018-04-24T15:09:15.913Z,55.80
2018-04-24T15:11:44.221Z,56.50
2018-04-24T15:14:12.475Z,56.10
2018-04-24T15:16:40.712Z,55.60
2018-04-24T15:19:09.793Z,55.70
2018-04-24T15:21:38.047Z,55.60
2018-04-24T15:24:06.317Z,55.30
2018-04-24T15:26:34.584Z,55.40
2018-04-24T15:29:02.830Z,56.10
2018-04-24T15:31:31.864Z,55.50
2018-04-24T15:34:00.155Z,55.50
2018-04-24T15:36:28.465Z,55.50
2018-04-24T15:38:56.643Z,55.00
2018-04-24T15:41:26.421Z,55.00
2018-04-24T15:43:54.736Z,55.00
2018-04-24T15:46:22.983Z,54.60
2018-04-24T15:48:51.254Z,55.20
2018-04-24T15:51:19.513Z,55.70
2018-04-24T15:53:47.758Z,55.60
2018-04-24T15:56:16.017Z,55.10
2018-04-24T15:58:44.248Z,55.50
2018-04-24T16:01:12.513Z,56.10
2018-04-24T16:03:41.569Z,55.80
2018-04-24T16:06:09.883Z,55.70
2018-04-24T16:08:38.180Z,55.40
2018-04-24T16:11:07.251Z,56.00
2018-04-24T16:13:35.495Z,56.00
2018-04-24T16:16:03.760Z,56.20
2018-04-24T16:18:32.000Z,55.80
2018-04-24T16:21:00.256Z,56.00
2018-04-24T16:23:28.517Z,56.00
2018-04-24T16:25:56.788Z,55.70
2018-04-24T16:28:25.076Z,55.50
2018-04-24T16:30:53.373Z,56.00
2018-04-24T16:33:21.646Z,56.00
2018-04-24T16:35:50.043Z,56.30
2018-04-24T16:38:18.201Z,55.80
2018-04-24T16:40:46.492Z,55.80
2018-04-24T16:43:14.764Z,55.80
2018-04-24T16:45:43.052Z,56.00
2018-04-24T16:48:11.289Z,56.10
2018-04-24T16:50:39.565Z,56.30
2018-04-24T16:53:07.839Z,56.10
2018-04-24T16:55:36.118Z,55.70
2018-04-24T16:58:04.397Z,55.50
2018-04-24T17:00:32.746Z,55.50
2018-04-24T17:03:00.990Z,55.50
2018-04-24T17:05:30.030Z,54.80
2018-04-24T17:07:58.262Z,54.80
2018-04-24T17:10:27.297Z,55.00
2018-04-24T17:12:55.597Z,54.90
2018-04-24T17:15:23.873Z,54.90
2018-04-24T17:17:52.129Z,55.10
2018-04-24T17:20:20.773Z,55.10
2018-04-24T17:22:49.835Z,54.50
2018-04-24T17:25:18.095Z,54.40
2018-04-24T17:27:46.328Z,54.10
2018-04-24T17:30:14.603Z,54.20
2018-04-24T17:32:42.846Z,53.60
2018-04-24T17:35:11.177Z,53.60
2018-04-24T17:37:39.418Z,53.60
2018-04-24T17:40:07.684Z,53.10
2018-04-24T17:42:35.921Z,53.30
2018-04-24T17:45:04.265Z,53.50
2018-04-24T17:47:32.595Z,53.30
2018-04-24T17:50:00.976Z,53.60
2018-04-24T17:52:29.108Z,53.60
2018-04-24T17:54:57.364Z,53.60
2018-04-24T17:57:25.614Z,53.90
2018-04-24T17:59:54.675Z,53.90
2018-04-24T18:02:22.932Z,53.90
2018-04-24T18:04:51.183Z,54.00
2018-04-24T18:07:20.199Z,54.40
2018-04-24T18:09:49.221Z,54.50
2018-04-24T18:12:17.489Z,54.50
2018-04-24T18:14:45.782Z,54.50
2018-04-24T18:17:14.052Z,54.70
2018-04-24T18:19:42.291Z,55.00
2018-04-24T18:22:10.563Z,55.20
2018-04-24T18:24:38.806Z,55.40
2018-04-24T18:27:07.064Z,55.40
2018-04-24T18:29:35.303Z,55.50
2018-04-24T18:32:03.560Z,55.80
2018-04-24T18:34:31.878Z,55.70
2018-04-24T18:37:00.251Z,55.70
2018-04-24T18:39:28.469Z,55.90
2018-04-24T18:41:56.785Z,55.70
2018-04-24T18:44:25.022Z,55.70
2018-04-24T18:46:54.038Z,56.30
2018-04-24T18:49:22.349Z,56.30
2018-04-24T18:51:50.599Z,56.30
2018-04-24T18:54:18.853Z,56.30
2018-04-24T18:56:48.709Z,56.70
2018-04-24T18:59:17.102Z,56.60
2018-04-24T19:01:45.368Z,56.70
2018-04-24T19:04:13.652Z,56.80
2018-04-24T19:06:41.941Z,57.00
2018-04-24T19:09:10.230Z,57.00
2018-04-24T19:11:38.484Z,57.20
2018-04-24T19:14:12.334Z,57.30
2018-04-24T19:16:40.580Z,57.40
2018-04-24T19:19:14.580Z,57.80
2018-04-24T19:21:43.603Z,58.00
2018-04-24T19:24:17.619Z,58.00
2018-04-24T19:26:45.909Z,58.10
2018-04-24T19:29:14.793Z,58.20
2018-04-24T19:31:48.779Z,58.40
2018-04-24T19:34:17.780Z,59.00
2018-04-24T19:36:46.911Z,59.00
2018-04-24T19:39:20.931Z,59.00
2018-04-24T19:41:49.185Z,59.10
2018-04-24T19:44:17.446Z,59.50
2018-04-24T19:46:46.488Z,59.90
2018-04-24T19:49:20.637Z,59.90
2018-04-24T19:51:48.887Z,60.10
2018-04-24T19:54:17.172Z,60.40
2018-04-24T19:56:45.437Z,60.50
2018-04-24T19:59:13.698Z,60.80
2018-04-24T20:01:42.002Z,60.90
2018-04-24T20:04:10.259Z,61.20
2018-04-24T20:06:39.276Z,61.20
2018-04-24T20:09:07.514Z,61.20
2018-04-24T20:11:35.847Z,61.50
2018-04-24T20:14:04.083Z,61.90
2018-04-24T20:16:33.136Z,62.30
2018-04-24T20:19:01.402Z,62.30
2018-04-24T20:21:29.649Z,62.70
2018-04-24T20:23:57.980Z,63.00
2018-04-24T20:26:26.157Z,63.00
2018-04-24T20:28:54.393Z,63.40
2018-04-24T20:31:22.694Z,63.60
2018-04-24T20:33:50.940Z,64.30
2018-04-24T20:36:19.968Z,64.90
2018-04-24T20:38:48.232Z,64.80
2018-04-24T20:41:16.484Z,64.90
2018-04-24T20:43:45.502Z,65.30
2018-04-24T20:46:13.774Z,65.30
2018-04-24T20:48:42.789Z,66.40
2018-04-24T20:51:11.066Z,65.60
2018-04-24T20:53:39.402Z,66.10
2018-04-24T20:56:07.613Z,66.50
2018-04-24T20:58:36.633Z,66.90
2018-04-24T21:01:04.991Z,66.90
2018-04-24T21:03:33.160Z,67.20
2018-04-24T21:06:01.464Z,67.50
2018-04-24T21:08:29.714Z,67.80
2018-04-24T21:10:58.740Z,68.40
2018-04-24T21:13:26.988Z,68.40
2018-04-24T21:15:56.011Z,68.90
2018-04-24T21:18:24.270Z,68.90
2018-04-24T21:20:53.279Z,69.30
2018-04-24T21:23:21.524Z,69.30
2018-04-24T21:25:50.546Z,69.80
2018-04-24T21:28:18.850Z,69.80
2018-04-24T21:30:47.822Z,70.00
2018-04-24T21:33:16.081Z,69.80
2018-04-24T21:35:45.096Z,70.50
2018-04-24T21:38:13.355Z,70.40
2018-04-24T21:40:42.365Z,70.90
2018-04-24T21:43:11.393Z,71.40
2018-04-24T21:45:39.634Z,71.30
2018-04-24T21:48:08.665Z,72.00
2018-04-24T21:50:36.970Z,72.00
2018-04-24T21:53:05.930Z,72.50
2018-04-24T21:55:34.234Z,72.50
2018-04-24T21:58:02.508Z,72.70
2018-04-24T22:00:30.741Z,72.80
2018-04-24T22:02:59.786Z,73.70
2018-04-24T22:05:28.061Z,73.50
2018-04-24T22:07:56.338Z,73.70
2018-04-24T22:10:24.619Z,73.90
2018-04-24T22:12:52.869Z,74.50
2018-04-24T22:15:21.113Z,74.60
2018-04-24T22:17:49.378Z,74.90
2018-04-24T22:20:17.642Z,75.20
2018-04-24T22:22:45.920Z,75.40
2018-04-24T22:25:14.162Z,75.80
2018-04-24T22:27:43.300Z,76.30
2018-04-24T22:30:11.547Z,76.20
2018-04-24T22:32:39.814Z,76.30
2018-04-24T22:35:08.819Z,76.60
2018-04-24T22:37:37.836Z,76.90
2018-04-24T22:40:06.123Z,76.80
2018-04-24T22:42:34.381Z,76.80
2018-04-24T22:45:02.752Z,76.90
2018-04-24T22:47:31.784Z,76.90
2018-04-24T22:50:00.049Z,76.90
2018-04-24T22:52:28.320Z,77.00
2018-04-24T22:54:57.344Z,77.50
2018-04-24T22:57:25.596Z,78.20
2018-04-24T22:59:53.837Z,77.50
2018-04-24T23:02:22.104Z,77.40
2018-04-24T23:04:50.359Z,77.40
2018-04-24T23:07:18.621Z,77.20
2018-04-24T23:09:53.486Z,77.20
2018-04-24T23:12:33.825Z,77.40
2018-04-24T23:15:20.094Z,77.40
2018-04-24T23:18:06.473Z,77.50
2018-04-24T23:20:40.196Z,77.80
2018-04-24T23:23:08.217Z,78.00
2018-04-24T23:25:36.467Z,78.20
2018-04-24T23:28:05.487Z,78.20
2018-04-24T23:30:33.775Z,78.20
2018-04-24T23:33:02.046Z,78.40
2018-04-24T23:35:30.333Z,78.40
2018-04-24T23:37:58.593Z,78.40
2018-04-24T23:40:26.839Z,78.50
2018-04-24T23:42:55.090Z,78.40
2018-04-24T23:45:23.345Z,78.50
2018-04-24T23:47:51.608Z,78.50
2018-04-24T23:50:19.877Z,78.80
2018-04-24T23:52:48.871Z,79.30
2018-04-24T23:55:17.111Z,79.20
2018-04-24T23:57:45.367Z,79.80
